sensor_id;sensor_type;location;lat;lon;timestamp;P1;durP1;ratioP1;P2;durP2;ratioP2
42802;SDS011;28447;48.682;9.022;2023-11-22T05:01:16;13.90;;;7.80;;
42802;SDS011;28447;48.682;9.022;2023-11-22T05:03:42;15.07;;;7.77;;
42802;SDS011;28447;48.682;9.022;2023-11-22T05:06:08;12.30;;;7.83;;
42802;SDS011;28447;48.682;9.022;2023-11-22T05:08:35;13.70;;;8.93;;
42802;SDS011;28447;48.682;9.022;2023-11-22T05:11:01;14.33;;;9.10;;
42802;SDS011;28447;48.682;9.022;2023-11-22T05:13:28;17.40;;;9.30;;
42802;SDS011;28447;48.682;9.022;2023-11-22T05:15:54;18.03;;;8.07;;
42802;SDS011;28447;48.682;9.022;2023-11-22T05:18:20;12.87;;;8.10;;
42802;SDS011;28447;48.682;9.022;2023-11-22T05:20:46;13.20;;;7.80;;
42802;SDS011;28447;48.682;9.022;2023-11-22T05:23:13;14.00;;;8.60;;
42802;SDS011;28447;48.682;9.022;2023-11-22T05:25:39;12.07;;;6.70;;
42802;SDS011;28447;48.682;9.022;2023-11-22T05:28:05;10.73;;;7.00;;
42802;SDS011;28447;48.682;9.022;2023-11-22T05:30:31;11.53;;;7.77;;
42802;SDS011;28447;48.682;9.022;2023-11-22T05:32:57;12.30;;;7.33;;
42802;SDS011;28447;48.682;9.022;2023-11-22T05:35:23;13.60;;;6.63;;
42802;SDS011;28447;48.682;9.022;2023-11-22T05:37:49;10.50;;;6.90;;
42802;SDS011;28447;48.682;9.022;2023-11-22T05:40:15;10.43;;;7.20;;
42802;SDS011;28447;48.682;9.022;2023-11-22T05:42:41;11.73;;;7.53;;
42802;SDS011;28447;48.682;9.022;2023-11-22T05:45:07;14.70;;;7.03;;
42802;SDS011;28447;48.682;9.022;2023-11-22T05:47:34;10.77;;;7.63;;
42802;SDS011;28447;48.682;9.022;2023-11-22T05:50:00;8.87;;;6.37;;
42802;SDS011;28447;48.682;9.022;2023-11-22T05:52:26;11.27;;;6.67;;
42802;SDS011;28447;48.682;9.022;2023-11-22T05:54:52;10.93;;;6.90;;
42802;SDS011;28447;48.682;9.022;2023-11-22T05:57:18;10.70;;;6.80;;
42802;SDS011;28447;48.682;9.022;2023-11-22T05:59:44;11.53;;;7.30;;
42802;SDS011;28447;48.682;9.022;2023-11-22T06:02:11;13.37;;;7.10;;
42802;SDS011;28447;48.682;9.022;2023-11-22T06:04:37;11.90;;;7.30;;
42802;SDS011;28447;48.682;9.022;2023-11-22T06:07:03;14.87;;;7.87;;
42802;SDS011;28447;48.682;9.022;2023-11-22T06:09:30;10.63;;;7.17;;
42802;SDS011;28447;48.682;9.022;2023-11-22T06:11:56;11.47;;;7.13;;
42802;SDS011;28447;48.682;9.022;2023-11-22T06:14:22;11.13;;;7.73;;
42802;SDS011;28447;48.682;9.022;2023-11-22T06:16:48;12.23;;;7.80;;
42802;SDS011;28447;48.682;9.022;2023-11-22T06:19:14;17.20;;;8.60;;
42802;SDS011;28447;48.682;9.022;2023-11-22T06:21:40;14.37;;;7.67;;
42802;SDS011;28447;48.682;9.022;2023-11-22T06:24:06;17.13;;;8.10;;
42802;SDS011;28447;48.682;9.022;2023-11-22T06:26:34;12.80;;;8.40;;
42802;SDS011;28447;48.682;9.022;2023-11-22T06:29:00;13.67;;;7.73;;
42802;SDS011;28447;48.682;9.022;2023-11-22T06:31:27;12.57;;;7.83;;
42802;SDS011;28447;48.682;9.022;2023-11-22T06:33:53;17.10;;;7.70;;
42802;SDS011;28447;48.682;9.022;2023-11-22T06:36:20;14.10;;;7.60;;
42802;SDS011;28447;48.682;9.022;2023-11-22T06:38:46;15.20;;;6.87;;
42802;SDS011;28447;48.682;9.022;2023-11-22T06:41:12;11.23;;;6.97;;
42802;SDS011;28447;48.682;9.022;2023-11-22T06:43:38;10.30;;;7.03;;
42802;SDS011;28447;48.682;9.022;2023-11-22T06:46:04;13.90;;;7.57;;
42802;SDS011;28447;48.682;9.022;2023-11-22T06:48:31;10.03;;;6.60;;
42802;SDS011;28447;48.682;9.022;2023-11-22T06:50:58;11.50;;;6.50;;
42802;SDS011;28447;48.682;9.022;2023-11-22T06:53:24;11.60;;;6.90;;
42802;SDS011;28447;48.682;9.022;2023-11-22T06:55:50;13.50;;;6.60;;
42802;SDS011;28447;48.682;9.022;2023-11-22T06:58:17;9.47;;;6.03;;
42802;SDS011;28447;48.682;9.022;2023-11-22T07:00:44;9.70;;;6.20;;
42802;SDS011;28447;48.682;9.022;2023-11-22T07:03:10;12.80;;;7.90;;
42802;SDS011;28447;48.682;9.022;2023-11-22T07:05:37;11.63;;;7.30;;
42802;SDS011;28447;48.682;9.022;2023-11-22T07:08:03;10.33;;;6.50;;
42802;SDS011;28447;48.682;9.022;2023-11-22T07:10:29;12.13;;;7.17;;
42802;SDS011;28447;48.682;9.022;2023-11-22T07:12:59;12.60;;;6.90;;
42802;SDS011;28447;48.682;9.022;2023-11-22T07:15:26;12.43;;;7.37;;
42802;SDS011;28447;48.682;9.022;2023-11-22T07:17:52;12.17;;;6.83;;
42802;SDS011;28447;48.682;9.022;2023-11-22T07:20:19;8.70;;;6.57;;
42802;SDS011;28447;48.682;9.022;2023-11-22T07:22:45;12.10;;;6.67;;
42802;SDS011;28447;48.682;9.022;2023-11-22T07:25:11;15.97;;;7.70;;
42802;SDS011;28447;48.682;9.022;2023-11-22T07:27:47;11.30;;;7.13;;
42802;SDS011;28447;48.682;9.022;2023-11-22T07:30:14;10.43;;;7.30;;
42802;SDS011;28447;48.682;9.022;2023-11-22T07:32:41;12.20;;;7.50;;
42802;SDS011;28447;48.682;9.022;2023-11-22T07:35:07;14.33;;;8.67;;
42802;SDS011;28447;48.682;9.022;2023-11-22T07:37:34;11.53;;;7.07;;
42802;SDS011;28447;48.682;9.022;2023-11-22T07:40:01;9.47;;;7.10;;
42802;SDS011;28447;48.682;9.022;2023-11-22T07:42:30;11.80;;;7.80;;
42802;SDS011;28447;48.682;9.022;2023-11-22T07:44:56;8.53;;;6.13;;
42802;SDS011;28447;48.682;9.022;2023-11-22T07:47:22;14.90;;;7.37;;
42802;SDS011;28447;48.682;9.022;2023-11-22T07:49:50;11.40;;;6.97;;
42802;SDS011;28447;48.682;9.022;2023-11-22T07:52:16;11.27;;;6.40;;
42802;SDS011;28447;48.682;9.022;2023-11-22T07:54:42;9.43;;;6.57;;
42802;SDS011;28447;48.682;9.022;2023-11-22T07:57:09;9.87;;;6.40;;
42802;SDS011;28447;48.682;9.022;2023-11-22T07:59:35;10.27;;;6.77;;
42802;SDS011;28447;48.682;9.022;2023-11-22T08:02:02;9.40;;;6.27;;
42802;SDS011;28447;48.682;9.022;2023-11-22T08:04:31;10.63;;;6.13;;
42802;SDS011;28447;48.682;9.022;2023-11-22T08:06:57;9.43;;;5.70;;
42802;SDS011;28447;48.682;9.022;2023-11-22T08:09:24;15.43;;;5.93;;
42802;SDS011;28447;48.682;9.022;2023-11-22T08:11:50;8.73;;;5.73;;
42802;SDS011;28447;48.682;9.022;2023-11-22T08:14:17;8.87;;;5.77;;
42802;SDS011;28447;48.682;9.022;2023-11-22T08:16:45;9.77;;;6.20;;
42802;SDS011;28447;48.682;9.022;2023-11-22T08:19:11;8.77;;;5.80;;
42802;SDS011;28447;48.682;9.022;2023-11-22T08:21:37;7.40;;;5.10;;
42802;SDS011;28447;48.682;9.022;2023-11-22T08:24:04;7.93;;;5.20;;
42802;SDS011;28447;48.682;9.022;2023-11-22T08:26:30;9.87;;;5.23;;
42802;SDS011;28447;48.682;9.022;2023-11-22T08:28:56;7.73;;;4.50;;
42802;SDS011;28447;48.682;9.022;2023-11-22T08:31:23;6.63;;;4.53;;
42802;SDS011;28447;48.682;9.022;2023-11-22T08:33:49;7.40;;;5.00;;
42802;SDS011;28447;48.682;9.022;2023-11-22T08:36:15;12.07;;;5.27;;
42802;SDS011;28447;48.682;9.022;2023-11-22T08:38:41;8.17;;;4.73;;
42802;SDS011;28447;48.682;9.022;2023-11-22T08:41:09;9.33;;;5.70;;
42802;SDS011;28447;48.682;9.022;2023-11-22T08:43:38;7.20;;;4.73;;
42802;SDS011;28447;48.682;9.022;2023-11-22T08:46:04;10.37;;;5.97;;
42802;SDS011;28447;48.682;9.022;2023-11-22T08:48:31;7.20;;;4.70;;
42802;SDS011;28447;48.682;9.022;2023-11-22T08:50:57;7.83;;;5.17;;
42802;SDS011;28447;48.682;9.022;2023-11-22T08:53:24;8.03;;;5.30;;
42802;SDS011;28447;48.682;9.022;2023-11-22T08:55:50;7.93;;;4.90;;
42802;SDS011;28447;48.682;9.022;2023-11-22T08:58:18;10.70;;;5.37;;
42802;SDS011;28447;48.682;9.022;2023-11-22T09:00:44;8.27;;;6.20;;
42802;SDS011;28447;48.682;9.022;2023-11-22T09:03:13;8.30;;;5.33;;
42802;SDS011;28447;48.682;9.022;2023-11-22T09:05:39;9.60;;;5.53;;
42802;SDS011;28447;48.682;9.022;2023-11-22T09:08:05;7.10;;;4.93;;
42802;SDS011;28447;48.682;9.022;2023-11-22T09:10:32;8.23;;;5.43;;
42802;SDS011;28447;48.682;9.022;2023-11-22T09:12:58;8.80;;;5.47;;
42802;SDS011;28447;48.682;9.022;2023-11-22T09:15:27;11.37;;;6.23;;
42802;SDS011;28447;48.682;9.022;2023-11-22T09:17:54;10.17;;;5.87;;
42802;SDS011;28447;48.682;9.022;2023-11-22T09:20:21;7.97;;;5.33;;
42802;SDS011;28447;48.682;9.022;2023-11-22T09:22:48;10.27;;;5.40;;
42802;SDS011;28447;48.682;9.022;2023-11-22T09:25:18;8.27;;;5.80;;
42802;SDS011;28447;48.682;9.022;2023-11-22T09:27:44;8.00;;;4.70;;
42802;SDS011;28447;48.682;9.022;2023-11-22T09:30:15;6.90;;;4.93;;
42802;SDS011;28447;48.682;9.022;2023-11-22T09:32:57;10.30;;;5.10;;
42802;SDS011;28447;48.682;9.022;2023-11-22T09:35:23;7.83;;;5.10;;
42802;SDS011;28447;48.682;9.022;2023-11-22T09:37:50;8.13;;;5.13;;
42802;SDS011;28447;48.682;9.022;2023-11-22T09:40:16;8.77;;;5.60;;
42802;SDS011;28447;48.682;9.022;2023-11-22T09:42:44;7.53;;;5.23;;
42802;SDS011;28447;48.682;9.022;2023-11-22T09:45:16;8.60;;;5.53;;
42802;SDS011;28447;48.682;9.022;2023-11-22T09:47:43;10.17;;;5.07;;
42802;SDS011;28447;48.682;9.022;2023-11-22T09:50:10;8.00;;;6.00;;
42802;SDS011;28447;48.682;9.022;2023-11-22T09:52:39;10.17;;;5.50;;
42802;SDS011;28447;48.682;9.022;2023-11-22T09:55:07;8.27;;;5.80;;
42802;SDS011;28447;48.682;9.022;2023-11-22T09:57:33;14.13;;;5.57;;
42802;SDS011;28447;48.682;9.022;2023-11-22T10:00:01;10.90;;;6.00;;
42802;SDS011;28447;48.682;9.022;2023-11-22T10:02:27;9.47;;;6.17;;
42802;SDS011;28447;48.682;9.022;2023-11-22T10:04:54;10.80;;;6.03;;
42802;SDS011;28447;48.682;9.022;2023-11-22T10:07:21;11.23;;;5.57;;
42802;SDS011;28447;48.682;9.022;2023-11-22T10:09:47;10.83;;;6.50;;
42802;SDS011;28447;48.682;9.022;2023-11-22T10:12:14;8.93;;;6.30;;
42802;SDS011;28447;48.682;9.022;2023-11-22T10:14:46;7.97;;;6.30;;
42802;SDS011;28447;48.682;9.022;2023-11-22T10:17:12;8.20;;;6.03;;
42802;SDS011;28447;48.682;9.022;2023-11-22T10:19:41;15.63;;;7.20;;
42802;SDS011;28447;48.682;9.022;2023-11-22T10:22:07;12.33;;;6.47;;
42802;SDS011;28447;48.682;9.022;2023-11-22T10:24:34;11.33;;;6.40;;
42802;SDS011;28447;48.682;9.022;2023-11-22T10:27:01;14.60;;;6.93;;
42802;SDS011;28447;48.682;9.022;2023-11-22T10:29:27;9.43;;;6.17;;
42802;SDS011;28447;48.682;9.022;2023-11-22T10:32:02;10.13;;;6.30;;
42802;SDS011;28447;48.682;9.022;2023-11-22T10:34:28;10.20;;;6.80;;
42802;SDS011;28447;48.682;9.022;2023-11-22T10:36:55;14.20;;;7.00;;
42802;SDS011;28447;48.682;9.022;2023-11-22T10:39:21;10.20;;;6.33;;
42802;SDS011;28447;48.682;9.022;2023-11-22T10:41:49;10.30;;;6.10;;
42802;SDS011;28447;48.682;9.022;2023-11-22T10:44:16;11.53;;;6.17;;
42802;SDS011;28447;48.682;9.022;2023-11-22T10:46:44;9.40;;;6.13;;
42802;SDS011;28447;48.682;9.022;2023-11-22T10:49:11;11.73;;;7.17;;
42802;SDS011;28447;48.682;9.022;2023-11-22T10:51:37;10.03;;;6.03;;
42802;SDS011;28447;48.682;9.022;2023-11-22T10:54:06;9.37;;;6.67;;
42802;SDS011;28447;48.682;9.022;2023-11-22T10:56:41;10.93;;;6.60;;
42802;SDS011;28447;48.682;9.022;2023-11-22T10:59:10;15.70;;;7.30;;
42802;SDS011;28447;48.682;9.022;2023-11-22T11:01:37;9.10;;;5.97;;
42802;SDS011;28447;48.682;9.022;2023-11-22T11:04:09;10.67;;;6.00;;
42802;SDS011;28447;48.682;9.022;2023-11-22T11:06:36;9.60;;;7.27;;
42802;SDS011;28447;48.682;9.022;2023-11-22T11:09:03;11.30;;;7.30;;
42802;SDS011;28447;48.682;9.022;2023-11-22T11:11:37;11.87;;;7.43;;
42802;SDS011;28447;48.682;9.022;2023-11-22T11:14:04;11.77;;;8.00;;
42802;SDS011;28447;48.682;9.022;2023-11-22T11:16:31;14.53;;;6.87;;
42802;SDS011;28447;48.682;9.022;2023-11-22T11:18:59;11.27;;;7.13;;
42802;SDS011;28447;48.682;9.022;2023-11-22T11:21:25;10.47;;;6.80;;
42802;SDS011;28447;48.682;9.022;2023-11-22T11:23:52;12.20;;;7.80;;
42802;SDS011;28447;48.682;9.022;2023-11-22T11:26:20;9.97;;;6.90;;
42802;SDS011;28447;48.682;9.022;2023-11-22T11:28:47;15.30;;;7.93;;
42802;SDS011;28447;48.682;9.022;2023-11-22T11:31:14;20.50;;;8.40;;
42802;SDS011;28447;48.682;9.022;2023-11-22T11:36:29;12.20;;;7.80;;
42802;SDS011;28447;48.682;9.022;2023-11-22T11:38:59;13.73;;;7.80;;
42802;SDS011;28447;48.682;9.022;2023-11-22T11:43:55;11.37;;;7.17;;
42802;SDS011;28447;48.682;9.022;2023-11-22T11:46:22;11.70;;;7.67;;
42802;SDS011;28447;48.682;9.022;2023-11-22T11:48:50;12.77;;;8.37;;
42802;SDS011;28447;48.682;9.022;2023-11-22T11:51:17;10.73;;;7.70;;
42802;SDS011;28447;48.682;9.022;2023-11-22T11:53:47;11.00;;;7.80;;
42802;SDS011;28447;48.682;9.022;2023-11-22T11:56:13;9.80;;;6.37;;
42802;SDS011;28447;48.682;9.022;2023-11-22T11:58:41;11.67;;;7.77;;
42802;SDS011;28447;48.682;9.022;2023-11-22T12:01:07;9.33;;;7.10;;
42802;SDS011;28447;48.682;9.022;2023-11-22T12:03:35;11.30;;;6.80;;
42802;SDS011;28447;48.682;9.022;2023-11-22T12:06:01;12.70;;;7.73;;
42802;SDS011;28447;48.682;9.022;2023-11-22T12:08:27;13.63;;;7.80;;
42802;SDS011;28447;48.682;9.022;2023-11-22T12:11:01;11.03;;;7.67;;
42802;SDS011;28447;48.682;9.022;2023-11-22T12:13:28;12.83;;;8.97;;
42802;SDS011;28447;48.682;9.022;2023-11-22T12:15:54;11.23;;;7.60;;
42802;SDS011;28447;48.682;9.022;2023-11-22T12:18:21;13.07;;;9.43;;
42802;SDS011;28447;48.682;9.022;2023-11-22T12:20:57;11.70;;;7.50;;
42802;SDS011;28447;48.682;9.022;2023-11-22T12:23:23;11.43;;;7.20;;
42802;SDS011;28447;48.682;9.022;2023-11-22T12:25:57;11.17;;;7.50;;
42802;SDS011;28447;48.682;9.022;2023-11-22T12:28:23;13.03;;;8.10;;
42802;SDS011;28447;48.682;9.022;2023-11-22T12:30:50;11.90;;;7.87;;
42802;SDS011;28447;48.682;9.022;2023-11-22T12:33:16;11.47;;;7.50;;
42802;SDS011;28447;48.682;9.022;2023-11-22T12:35:44;17.43;;;9.27;;
42802;SDS011;28447;48.682;9.022;2023-11-22T12:38:10;14.67;;;7.83;;
42802;SDS011;28447;48.682;9.022;2023-11-22T12:40:37;13.23;;;7.60;;
42802;SDS011;28447;48.682;9.022;2023-11-22T12:43:03;12.00;;;8.27;;
42802;SDS011;28447;48.682;9.022;2023-11-22T12:45:30;12.90;;;8.03;;
42802;SDS011;28447;48.682;9.022;2023-11-22T12:48:04;12.67;;;8.37;;
42802;SDS011;28447;48.682;9.022;2023-11-22T12:50:44;19.13;;;10.00;;
42802;SDS011;28447;48.682;9.022;2023-11-22T12:53:11;12.87;;;7.47;;
42802;SDS011;28447;48.682;9.022;2023-11-22T12:55:46;11.23;;;7.90;;
42802;SDS011;28447;48.682;9.022;2023-11-22T12:58:14;13.87;;;8.10;;
42802;SDS011;28447;48.682;9.022;2023-11-22T13:00:40;13.00;;;7.43;;
42802;SDS011;28447;48.682;9.022;2023-11-22T13:03:09;12.30;;;6.90;;
42802;SDS011;28447;48.682;9.022;2023-11-22T13:05:36;10.87;;;7.90;;
42802;SDS011;28447;48.682;9.022;2023-11-22T13:08:02;12.87;;;7.67;;
42802;SDS011;28447;48.682;9.022;2023-11-22T13:10:31;13.60;;;8.47;;
42802;SDS011;28447;48.682;9.022;2023-11-22T13:12:57;13.43;;;8.77;;
42802;SDS011;28447;48.682;9.022;2023-11-22T13:15:23;10.30;;;7.33;;
42802;SDS011;28447;48.682;9.022;2023-11-22T13:17:51;14.10;;;8.60;;
42802;SDS011;28447;48.682;9.022;2023-11-22T13:20:24;13.10;;;8.07;;
42802;SDS011;28447;48.682;9.022;2023-11-22T13:22:51;11.93;;;7.77;;
42802;SDS011;28447;48.682;9.022;2023-11-22T13:25:17;14.33;;;7.97;;
42802;SDS011;28447;48.682;9.022;2023-11-22T13:27:48;12.87;;;7.40;;
42802;SDS011;28447;48.682;9.022;2023-11-22T13:30:14;10.27;;;7.07;;
42802;SDS011;28447;48.682;9.022;2023-11-22T13:32:42;12.60;;;6.93;;
42802;SDS011;28447;48.682;9.022;2023-11-22T13:35:09;11.33;;;7.33;;
42802;SDS011;28447;48.682;9.022;2023-11-22T13:37:42;11.23;;;7.40;;
42802;SDS011;28447;48.682;9.022;2023-11-22T13:40:09;11.20;;;7.60;;
42802;SDS011;28447;48.682;9.022;2023-11-22T13:42:42;13.43;;;7.80;;
42802;SDS011;28447;48.682;9.022;2023-11-22T13:45:09;11.30;;;8.20;;
42802;SDS011;28447;48.682;9.022;2023-11-22T13:47:36;12.10;;;7.63;;
42802;SDS011;28447;48.682;9.022;2023-11-22T13:50:02;12.00;;;7.30;;
42802;SDS011;28447;48.682;9.022;2023-11-22T13:52:28;13.70;;;8.00;;
42802;SDS011;28447;48.682;9.022;2023-11-22T13:54:54;11.87;;;7.07;;
42802;SDS011;28447;48.682;9.022;2023-11-22T13:57:22;14.37;;;8.33;;
42802;SDS011;28447;48.682;9.022;2023-11-22T13:59:48;12.20;;;7.50;;
42802;SDS011;28447;48.682;9.022;2023-11-22T14:02:14;13.70;;;8.53;;
42802;SDS011;28447;48.682;9.022;2023-11-22T14:04:41;12.67;;;7.53;;
42802;SDS011;28447;48.682;9.022;2023-11-22T14:07:07;10.00;;;7.37;;
42802;SDS011;28447;48.682;9.022;2023-11-22T14:09:33;13.90;;;7.50;;
42802;SDS011;28447;48.682;9.022;2023-11-22T14:12:01;12.13;;;7.00;;
42802;SDS011;28447;48.682;9.022;2023-11-22T14:14:27;10.57;;;6.97;;
42802;SDS011;28447;48.682;9.022;2023-11-22T14:16:53;9.20;;;6.50;;
42802;SDS011;28447;48.682;9.022;2023-11-22T14:19:19;8.73;;;6.30;;
42802;SDS011;28447;48.682;9.022;2023-11-22T14:21:45;10.33;;;6.93;;
42802;SDS011;28447;48.682;9.022;2023-11-22T14:24:12;10.83;;;6.20;;
42802;SDS011;28447;48.682;9.022;2023-11-22T14:26:38;11.57;;;7.30;;
42802;SDS011;28447;48.682;9.022;2023-11-22T14:29:04;11.30;;;7.67;;
42802;SDS011;28447;48.682;9.022;2023-11-22T14:31:31;9.80;;;6.40;;
42802;SDS011;28447;48.682;9.022;2023-11-22T14:33:57;9.87;;;6.97;;
42802;SDS011;28447;48.682;9.022;2023-11-22T14:36:23;13.70;;;7.53;;
42802;SDS011;28447;48.682;9.022;2023-11-22T14:38:51;10.00;;;6.60;;
42802;SDS011;28447;48.682;9.022;2023-11-22T14:41:21;9.20;;;6.40;;
42802;SDS011;28447;48.682;9.022;2023-11-22T14:43:47;9.50;;;5.87;;
42802;SDS011;28447;48.682;9.022;2023-11-22T14:46:13;10.53;;;7.00;;
42802;SDS011;28447;48.682;9.022;2023-11-22T14:48:40;11.00;;;6.70;;
42802;SDS011;28447;48.682;9.022;2023-11-22T14:51:07;9.73;;;6.30;;
42802;SDS011;28447;48.682;9.022;2023-11-22T14:53:34;8.77;;;5.87;;
42802;SDS011;28447;48.682;9.022;2023-11-22T14:56:00;9.53;;;6.40;;
42802;SDS011;28447;48.682;9.022;2023-11-22T14:58:28;9.00;;;6.13;;
42802;SDS011;28447;48.682;9.022;2023-11-22T15:00:54;15.97;;;9.70;;
42802;SDS011;28447;48.682;9.022;2023-11-22T15:03:22;12.27;;;7.87;;
42802;SDS011;28447;48.682;9.022;2023-11-22T15:05:49;12.53;;;7.33;;
42802;SDS011;28447;48.682;9.022;2023-11-22T15:08:15;10.07;;;6.93;;
42802;SDS011;28447;48.682;9.022;2023-11-22T15:10:41;10.17;;;6.10;;
42802;SDS011;28447;48.682;9.022;2023-11-22T15:13:07;12.67;;;8.10;;
42802;SDS011;28447;48.682;9.022;2023-11-22T15:15:35;11.30;;;8.00;;
42802;SDS011;28447;48.682;9.022;2023-11-22T15:18:01;9.40;;;7.20;;
42802;SDS011;28447;48.682;9.022;2023-11-22T15:20:27;9.73;;;6.97;;
42802;SDS011;28447;48.682;9.022;2023-11-22T15:22:53;7.70;;;6.00;;
42802;SDS011;28447;48.682;9.022;2023-11-22T15:25:19;9.23;;;6.13;;
42802;SDS011;28447;48.682;9.022;2023-11-22T15:27:45;10.70;;;6.83;;
42802;SDS011;28447;48.682;9.022;2023-11-22T15:30:11;11.47;;;7.03;;
42802;SDS011;28447;48.682;9.022;2023-11-22T15:32:37;11.33;;;7.30;;
42802;SDS011;28447;48.682;9.022;2023-11-22T15:35:06;10.10;;;5.93;;
42802;SDS011;28447;48.682;9.022;2023-11-22T15:37:35;9.40;;;6.73;;
42802;SDS011;28447;48.682;9.022;2023-11-22T15:40:01;9.70;;;6.40;;
42802;SDS011;28447;48.682;9.022;2023-11-22T15:42:28;10.00;;;6.43;;
42802;SDS011;28447;48.682;9.022;2023-11-22T15:44:54;8.43;;;6.47;;
42802;SDS011;28447;48.682;9.022;2023-11-22T15:47:20;10.93;;;6.73;;
42802;SDS011;28447;48.682;9.022;2023-11-22T15:49:46;10.10;;;6.43;;
42802;SDS011;28447;48.682;9.022;2023-11-22T15:52:12;13.20;;;7.17;;
42802;SDS011;28447;48.682;9.022;2023-11-22T15:54:38;10.90;;;7.20;;
42802;SDS011;28447;48.682;9.022;2023-11-22T15:57:04;14.30;;;9.30;;
42802;SDS011;28447;48.682;9.022;2023-11-22T15:59:31;9.60;;;7.30;;
42802;SDS011;28447;48.682;9.022;2023-11-22T16:01:57;11.07;;;7.43;;
42802;SDS011;28447;48.682;9.022;2023-11-22T16:04:23;9.70;;;7.07;;
42802;SDS011;28447;48.682;9.022;2023-11-22T16:06:52;12.17;;;7.90;;
42802;SDS011;28447;48.682;9.022;2023-11-22T16:09:18;11.33;;;7.80;;
42802;SDS011;28447;48.682;9.022;2023-11-22T16:11:44;10.30;;;7.80;;
42802;SDS011;28447;48.682;9.022;2023-11-22T16:14:10;13.70;;;9.57;;
42802;SDS011;28447;48.682;9.022;2023-11-22T16:16:37;14.10;;;8.70;;
42802;SDS011;28447;48.682;9.022;2023-11-22T16:19:03;14.10;;;9.03;;
42802;SDS011;28447;48.682;9.022;2023-11-22T16:21:30;12.63;;;9.10;;
42802;SDS011;28447;48.682;9.022;2023-11-22T16:23:57;13.80;;;8.30;;
42802;SDS011;28447;48.682;9.022;2023-11-22T16:26:24;11.90;;;8.23;;
42802;SDS011;28447;48.682;9.022;2023-11-22T16:28:56;13.07;;;9.00;;
42802;SDS011;28447;48.682;9.022;2023-11-22T16:31:26;14.40;;;8.87;;
42802;SDS011;28447;48.682;9.022;2023-11-22T16:33:52;15.17;;;8.27;;
42802;SDS011;28447;48.682;9.022;2023-11-22T16:36:18;10.33;;;7.80;;
42802;SDS011;28447;48.682;9.022;2023-11-22T16:38:45;10.93;;;8.00;;
42802;SDS011;28447;48.682;9.022;2023-11-22T16:41:11;12.27;;;8.30;;
42802;SDS011;28447;48.682;9.022;2023-11-22T16:43:38;11.40;;;7.60;;
42802;SDS011;28447;48.682;9.022;2023-11-22T16:46:06;12.53;;;8.40;;
42802;SDS011;28447;48.682;9.022;2023-11-22T16:48:32;11.53;;;7.93;;
42802;SDS011;28447;48.682;9.022;2023-11-22T16:50:58;10.83;;;7.73;;
42802;SDS011;28447;48.682;9.022;2023-11-22T16:53:24;11.67;;;7.57;;
42802;SDS011;28447;48.682;9.022;2023-11-22T16:55:50;11.70;;;8.57;;
42802;SDS011;28447;48.682;9.022;2023-11-22T16:58:17;10.90;;;7.47;;
42802;SDS011;28447;48.682;9.022;2023-11-22T17:00:44;17.13;;;7.97;;
42802;SDS011;28447;48.682;9.022;2023-11-22T17:03:11;10.50;;;7.30;;
42802;SDS011;28447;48.682;9.022;2023-11-22T17:05:37;11.20;;;7.57;;
42802;SDS011;28447;48.682;9.022;2023-11-22T17:08:03;11.37;;;7.53;;
42802;SDS011;28447;48.682;9.022;2023-11-22T17:10:29;9.33;;;7.17;;
42802;SDS011;28447;48.682;9.022;2023-11-22T17:12:55;14.33;;;9.23;;
42802;SDS011;28447;48.682;9.022;2023-11-22T17:15:21;10.13;;;7.00;;
42802;SDS011;28447;48.682;9.022;2023-11-22T17:17:47;11.53;;;8.47;;
42802;SDS011;28447;48.682;9.022;2023-11-22T17:20:14;11.13;;;7.30;;
42802;SDS011;28447;48.682;9.022;2023-11-22T17:22:40;11.60;;;7.57;;
42802;SDS011;28447;48.682;9.022;2023-11-22T17:25:06;14.47;;;8.03;;
42802;SDS011;28447;48.682;9.022;2023-11-22T17:27:41;12.77;;;8.37;;
42802;SDS011;28447;48.682;9.022;2023-11-22T17:30:07;11.43;;;8.43;;
42802;SDS011;28447;48.682;9.022;2023-11-22T17:32:33;11.47;;;8.10;;
42802;SDS011;28447;48.682;9.022;2023-11-22T17:34:59;12.07;;;7.60;;
42802;SDS011;28447;48.682;9.022;2023-11-22T17:37:25;9.77;;;7.37;;
42802;SDS011;28447;48.682;9.022;2023-11-22T17:39:51;12.63;;;8.50;;
42802;SDS011;28447;48.682;9.022;2023-11-22T17:42:18;11.10;;;7.43;;
42802;SDS011;28447;48.682;9.022;2023-11-22T17:44:44;11.67;;;8.10;;
42802;SDS011;28447;48.682;9.022;2023-11-22T17:47:14;12.03;;;8.27;;
42802;SDS011;28447;48.682;9.022;2023-11-22T17:49:40;12.50;;;8.07;;
42802;SDS011;28447;48.682;9.022;2023-11-22T17:52:06;11.63;;;8.10;;
42802;SDS011;28447;48.682;9.022;2023-11-22T17:54:33;16.23;;;8.20;;
42802;SDS011;28447;48.682;9.022;2023-11-22T17:56:59;12.20;;;8.83;;
42802;SDS011;28447;48.682;9.022;2023-11-22T17:59:25;15.77;;;9.37;;
42802;SDS011;28447;48.682;9.022;2023-11-22T18:01:51;17.10;;;9.87;;
42802;SDS011;28447;48.682;9.022;2023-11-22T18:04:17;15.90;;;10.83;;
42802;SDS011;28447;48.682;9.022;2023-11-22T18:06:43;13.83;;;9.33;;
42802;SDS011;28447;48.682;9.022;2023-11-22T18:09:13;21.13;;;11.60;;
42802;SDS011;28447;48.682;9.022;2023-11-22T18:11:39;17.57;;;11.80;;
42802;SDS011;28447;48.682;9.022;2023-11-22T18:14:05;19.60;;;13.23;;
42802;SDS011;28447;48.682;9.022;2023-11-22T18:16:32;15.70;;;11.33;;
42802;SDS011;28447;48.682;9.022;2023-11-22T18:18:58;16.20;;;10.67;;
42802;SDS011;28447;48.682;9.022;2023-11-22T18:21:26;16.30;;;10.13;;
42802;SDS011;28447;48.682;9.022;2023-11-22T18:23:52;16.97;;;10.10;;
42802;SDS011;28447;48.682;9.022;2023-11-22T18:26:20;16.97;;;10.63;;
42802;SDS011;28447;48.682;9.022;2023-11-22T18:28:49;17.13;;;10.77;;
42802;SDS011;28447;48.682;9.022;2023-11-22T18:31:15;19.70;;;12.27;;
42802;SDS011;28447;48.682;9.022;2023-11-22T18:33:41;18.90;;;11.50;;
42802;SDS011;28447;48.682;9.022;2023-11-22T18:36:08;17.10;;;12.00;;
42802;SDS011;28447;48.682;9.022;2023-11-22T18:38:35;19.30;;;11.53;;
42802;SDS011;28447;48.682;9.022;2023-11-22T18:41:01;19.87;;;11.33;;
42802;SDS011;28447;48.682;9.022;2023-11-22T18:43:29;19.80;;;11.30;;
42802;SDS011;28447;48.682;9.022;2023-11-22T18:45:55;14.90;;;10.40;;
42802;SDS011;28447;48.682;9.022;2023-11-22T18:48:29;19.90;;;11.87;;
42802;SDS011;28447;48.682;9.022;2023-11-22T18:50:58;19.07;;;12.17;;
42802;SDS011;28447;48.682;9.022;2023-11-22T18:53:24;17.50;;;11.20;;
42802;SDS011;28447;48.682;9.022;2023-11-22T18:55:50;18.37;;;11.33;;
42802;SDS011;28447;48.682;9.022;2023-11-22T18:58:17;17.03;;;10.57;;
42802;SDS011;28447;48.682;9.022;2023-11-22T19:00:43;24.53;;;11.57;;
42802;SDS011;28447;48.682;9.022;2023-11-22T19:03:09;16.10;;;10.10;;
42802;SDS011;28447;48.682;9.022;2023-11-22T19:05:36;17.93;;;11.37;;
42802;SDS011;28447;48.682;9.022;2023-11-22T19:08:02;20.50;;;10.40;;
42802;SDS011;28447;48.682;9.022;2023-11-22T19:10:28;25.00;;;11.40;;
42802;SDS011;28447;48.682;9.022;2023-11-22T19:12:54;17.67;;;10.60;;
42802;SDS011;28447;48.682;9.022;2023-11-22T19:15:20;17.50;;;10.53;;
42802;SDS011;28447;48.682;9.022;2023-11-22T19:17:47;16.20;;;10.70;;
42802;SDS011;28447;48.682;9.022;2023-11-22T19:20:13;17.37;;;10.47;;
42802;SDS011;28447;48.682;9.022;2023-11-22T19:22:42;17.57;;;11.17;;
42802;SDS011;28447;48.682;9.022;2023-11-22T19:25:08;14.80;;;10.20;;
42802;SDS011;28447;48.682;9.022;2023-11-22T19:27:40;18.20;;;11.83;;
42802;SDS011;28447;48.682;9.022;2023-11-22T19:30:06;17.10;;;10.97;;
42802;SDS011;28447;48.682;9.022;2023-11-22T19:32:33;16.03;;;9.83;;
42802;SDS011;28447;48.682;9.022;2023-11-22T19:34:59;19.67;;;11.43;;
42802;SDS011;28447;48.682;9.022;2023-11-22T19:37:27;15.97;;;10.67;;
42802;SDS011;28447;48.682;9.022;2023-11-22T19:39:54;14.77;;;10.50;;